createdAt,value
2019-03-30T00:00:31.196Z,101814.84
2019-03-30T00:03:05.645Z,101815.39
2019-03-30T00:05:40.095Z,101810.26
2019-03-30T00:08:14.575Z,101807.28
2019-03-30T00:10:48.962Z,101803.16
2019-03-30T00:13:23.669Z,101803.26
2019-03-30T00:15:58.252Z,101797.78
2019-03-30T00:18:33.070Z,101801.70
2019-03-30T00:21:07.495Z,101800.61
2019-03-30T00:23:41.973Z,101792.10
2019-03-30T00:26:16.433Z,101798.14
2019-03-30T00:28:50.842Z,101800.75
2019-03-30T00:31:25.268Z,101795.29
2019-03-30T00:33:59.671Z,101786.71
2019-03-30T00:36:35.320Z,101782.70
2019-03-30T00:39:10.545Z,101785.77
2019-03-30T00:41:44.883Z,101785.33
2019-03-30T00:44:19.363Z,101779.35
2019-03-30T00:46:53.735Z,101781.16
2019-03-30T00:49:28.156Z,101776.80
2019-03-30T00:52:02.530Z,101779.05
2019-03-30T00:54:36.921Z,101773.13
2019-03-30T00:57:11.294Z,101774.86
2019-03-30T00:59:45.687Z,101768.87
2019-03-30T01:02:22.636Z,101769.78
2019-03-30T01:04:57.818Z,101768.52
2019-03-30T01:07:32.254Z,101756.95
2019-03-30T01:10:07.188Z,101761.23
2019-03-30T01:12:41.690Z,101748.97
2019-03-30T01:15:16.848Z,101754.53
2019-03-30T01:17:51.254Z,101748.98
2019-03-30T01:20:25.711Z,101748.58
2019-03-30T01:23:00.101Z,101743.41
2019-03-30T01:25:34.916Z,101744.27
2019-03-30T01:28:09.327Z,101741.77
2019-03-30T01:30:44.041Z,101744.25
2019-03-30T01:33:18.446Z,101739.13
2019-03-30T01:35:52.789Z,101737.86
2019-03-30T01:38:27.475Z,101741.27
2019-03-30T01:41:01.825Z,101739.60
2019-03-30T01:43:36.242Z,101739.27
2019-03-30T01:46:10.651Z,101732.02
2019-03-30T01:48:45.084Z,101723.91
2019-03-30T01:51:19.509Z,101725.70
2019-03-30T01:53:53.907Z,101723.52
2019-03-30T01:56:30.257Z,101721.86
2019-03-30T01:59:04.741Z,101714.66
2019-03-30T02:01:39.387Z,101718.09
2019-03-30T02:04:13.778Z,101711.68
2019-03-30T02:06:48.113Z,101708.30
2019-03-30T02:09:25.649Z,101706.55
2019-03-30T02:12:00.605Z,101705.27
2019-03-30T02:14:37.299Z,101699.72
2019-03-30T02:17:11.664Z,101700.55
2019-03-30T02:19:46.213Z,101696.92
2019-03-30T02:22:20.729Z,101695.23
2019-03-30T02:24:57.300Z,101694.90
2019-03-30T02:27:31.660Z,101696.66
2019-03-30T02:30:07.627Z,101691.09
2019-03-30T02:32:43.556Z,101693.30
2019-03-30T02:35:18.160Z,101695.88
2019-03-30T02:37:52.589Z,101691.17
2019-03-30T02:40:27.108Z,101689.09
2019-03-30T02:43:02.184Z,101685.41
2019-03-30T02:45:36.796Z,101680.64
2019-03-30T02:48:11.169Z,101685.41
2019-03-30T02:50:49.778Z,101680.77
2019-03-30T02:53:21.821Z,101677.37
2019-03-30T02:55:56.605Z,101678.75
2019-03-30T02:58:31.029Z,101677.52
2019-03-30T03:01:05.539Z,101674.53
2019-03-30T03:03:42.022Z,101671.10
2019-03-30T03:06:16.423Z,101669.81
2019-03-30T03:08:50.953Z,101666.38
2019-03-30T03:11:25.536Z,101659.53
2019-03-30T03:13:59.953Z,101667.25
2019-03-30T03:16:34.646Z,101664.68
2019-03-30T03:19:09.072Z,101660.86
2019-03-30T03:21:43.528Z,101657.04
2019-03-30T03:24:17.972Z,101657.06
2019-03-30T03:26:52.332Z,101650.26
2019-03-30T03:29:26.731Z,101646.04
2019-03-30T03:32:01.205Z,101647.79
2019-03-30T03:34:35.634Z,101647.34
2019-03-30T03:37:10.064Z,101641.36
2019-03-30T03:39:44.490Z,101640.48
2019-03-30T03:42:19.444Z,101635.80
2019-03-30T03:44:53.875Z,101636.23
2019-03-30T03:47:28.388Z,101631.97
2019-03-30T03:50:02.778Z,101627.76
2019-03-30T03:52:37.937Z,101628.61
2019-03-30T03:55:12.403Z,101620.52
2019-03-30T03:57:47.404Z,101621.38
2019-03-30T04:00:21.849Z,101612.38
2019-03-30T04:02:59.639Z,101612.84
2019-03-30T04:05:37.402Z,101606.84
2019-03-30T04:08:14.438Z,101611.98
2019-03-30T04:10:51.863Z,101609.44
2019-03-30T04:13:30.836Z,101609.87
2019-03-30T04:16:05.839Z,101603.89
2019-03-30T04:18:40.239Z,101605.20
2019-03-30T04:21:14.693Z,101606.13
2019-03-30T04:23:49.175Z,101596.75
2019-03-30T04:26:23.543Z,101594.64
2019-03-30T04:28:58.094Z,101592.91
2019-03-30T04:31:32.531Z,101583.13
2019-03-30T04:34:07.140Z,101589.11
2019-03-30T04:36:41.608Z,101582.72
2019-03-30T04:39:16.002Z,101581.02
2019-03-30T04:41:50.745Z,101577.17
2019-03-30T04:44:25.102Z,101581.07
2019-03-30T04:46:59.549Z,101581.95
2019-03-30T04:49:33.997Z,101579.83
2019-03-30T04:52:08.373Z,101580.67
2019-03-30T04:54:42.756Z,101575.92
2019-03-30T04:57:17.092Z,101578.07
2019-03-30T04:59:51.521Z,101575.95
2019-03-30T05:02:25.880Z,101574.21
2019-03-30T05:05:00.499Z,101575.92
2019-03-30T05:07:34.886Z,101580.13
2019-03-30T05:10:10.250Z,101582.67
2019-03-30T05:12:44.614Z,101578.77
2019-03-30T05:15:19.164Z,101581.73
2019-03-30T05:17:53.878Z,101579.97
2019-03-30T05:20:28.234Z,101576.11
2019-03-30T05:23:02.706Z,101578.65
2019-03-30T05:25:37.132Z,101582.04
2019-03-30T05:28:11.896Z,101575.58
2019-03-30T05:30:46.279Z,101575.02
2019-03-30T05:33:20.691Z,101575.71
2019-03-30T05:35:55.355Z,101575.69
2019-03-30T05:38:29.769Z,101573.01
2019-03-30T05:41:04.525Z,101571.64
2019-03-30T05:43:38.906Z,101573.08
2019-03-30T05:46:13.402Z,101575.16
2019-03-30T05:48:47.751Z,101573.31
2019-03-30T05:51:22.179Z,101573.08
2019-03-30T05:53:56.587Z,101572.70
2019-03-30T05:56:31.035Z,101569.67
2019-03-30T05:59:05.460Z,101571.20
2019-03-30T06:01:39.831Z,101571.88
2019-03-30T06:04:14.245Z,101572.64
2019-03-30T06:06:48.588Z,101570.94
2019-03-30T06:09:23.010Z,101570.70
2019-03-30T06:11:57.384Z,101569.14
2019-03-30T06:14:31.851Z,101565.21
2019-03-30T06:17:06.323Z,101564.88
2019-03-30T06:19:40.711Z,101563.41
2019-03-30T06:22:15.102Z,101564.64
2019-03-30T06:24:49.692Z,101554.80
2019-03-30T06:27:24.672Z,101559.23
2019-03-30T06:30:23.428Z,101556.06
2019-03-30T06:33:00.029Z,101553.98
2019-03-30T06:35:36.034Z,101553.35
2019-03-30T06:38:10.403Z,101551.66
2019-03-30T06:40:44.906Z,101548.09
2019-03-30T06:43:19.283Z,101543.34
2019-03-30T06:45:53.697Z,101542.66
2019-03-30T06:48:28.082Z,101546.63
2019-03-30T06:51:03.021Z,101543.59
2019-03-30T06:53:37.702Z,101539.88
2019-03-30T06:56:13.969Z,101539.69
2019-03-30T06:58:50.078Z,101541.33
2019-03-30T07:01:24.761Z,101542.96
2019-03-30T07:04:00.710Z,101539.39
2019-03-30T07:06:36.074Z,101539.17
2019-03-30T07:09:10.788Z,101532.73
2019-03-30T07:11:48.889Z,101536.53
2019-03-30T07:14:27.789Z,101541.84
2019-03-30T07:17:05.798Z,101532.45
2019-03-30T07:19:45.345Z,101539.52
2019-03-30T07:22:21.394Z,101531.17
2019-03-30T07:24:55.933Z,101529.85
2019-03-30T07:27:31.040Z,101534.47
2019-03-30T07:30:05.890Z,101530.23
2019-03-30T07:32:43.298Z,101533.05
2019-03-30T07:35:20.093Z,101531.77
2019-03-30T07:37:54.987Z,101534.77
2019-03-30T07:40:33.837Z,101534.40
2019-03-30T07:43:07.835Z,101537.42
2019-03-30T07:45:42.500Z,101539.19
2019-03-30T07:48:19.843Z,101533.70
2019-03-30T07:50:54.485Z,101533.66
2019-03-30T07:53:28.925Z,101532.97
2019-03-30T07:56:08.562Z,101531.56
2019-03-30T07:58:41.029Z,101530.95
2019-03-30T08:01:18.373Z,101530.27
2019-03-30T08:03:55.717Z,101532.62
2019-03-30T08:06:30.331Z,101524.36
2019-03-30T08:09:06.226Z,101524.98
2019-03-30T08:11:41.149Z,101522.73
2019-03-30T08:14:15.746Z,101525.45
2019-03-30T08:16:50.507Z,101523.91
2019-03-30T08:19:25.102Z,101523.52
2019-03-30T08:22:00.349Z,101521.72
2019-03-30T08:24:36.755Z,101523.00
2019-03-30T08:27:13.922Z,101526.23
2019-03-30T08:29:49.827Z,101523.07
2019-03-30T08:32:24.671Z,101521.98
2019-03-30T08:34:59.224Z,101511.28
2019-03-30T08:40:07.438Z,101512.39
2019-03-30T08:42:41.943Z,101508.20
2019-03-30T08:45:16.454Z,101511.14
2019-03-30T08:47:52.244Z,101498.53
2019-03-30T08:50:26.695Z,101503.84
2019-03-30T08:53:01.447Z,101504.36
2019-03-30T08:55:36.230Z,101501.68
2019-03-30T08:58:15.663Z,101505.72
2019-03-30T09:00:50.222Z,101499.73
2019-03-30T09:03:26.196Z,101499.98
2019-03-30T09:06:00.664Z,101496.76
2019-03-30T09:08:35.217Z,101494.25
2019-03-30T09:11:12.779Z,101493.59
2019-03-30T09:13:48.883Z,101487.13
2019-03-30T09:16:23.504Z,101481.73
2019-03-30T09:18:59.937Z,101483.19
2019-03-30T09:21:35.895Z,101483.09
2019-03-30T09:24:10.614Z,101489.55
2019-03-30T09:26:45.145Z,101473.96
2019-03-30T09:29:21.489Z,101483.17
2019-03-30T09:31:56.462Z,101472.52
2019-03-30T09:34:32.859Z,101469.64
2019-03-30T09:37:09.179Z,101468.11
2019-03-30T09:39:45.392Z,101465.11
2019-03-30T09:42:20.120Z,101462.01
2019-03-30T09:44:54.945Z,101459.62
2019-03-30T09:47:29.463Z,101461.52
2019-03-30T09:50:04.052Z,101452.17
2019-03-30T09:52:39.184Z,101449.19
2019-03-30T09:55:15.868Z,101444.27
2019-03-30T09:57:51.461Z,101444.84
2019-03-30T10:00:26.405Z,101442.25
2019-03-30T10:03:01.210Z,101443.55
2019-03-30T10:05:36.415Z,101433.95
2019-03-30T10:08:11.252Z,101438.85
2019-03-30T10:10:45.730Z,101433.97
2019-03-30T10:13:22.036Z,101433.95
2019-03-30T10:15:57.004Z,101430.61
2019-03-30T10:18:32.105Z,101431.70
2019-03-30T10:21:08.603Z,101429.52
2019-03-30T10:23:43.203Z,101424.09
2019-03-30T10:26:19.572Z,101417.96
2019-03-30T10:28:55.022Z,101419.70
2019-03-30T10:31:32.072Z,101424.38
2019-03-30T10:34:08.468Z,101418.16
2019-03-30T10:36:42.974Z,101411.09
2019-03-30T10:39:18.517Z,101409.95
2019-03-30T10:41:53.162Z,101409.40
2019-03-30T10:44:27.693Z,101401.45
2019-03-30T10:47:03.959Z,101400.81
2019-03-30T10:49:38.575Z,101394.11
2019-03-30T10:52:13.149Z,101392.91
2019-03-30T10:54:53.015Z,101389.91
2019-03-30T10:57:25.953Z,101387.11
2019-03-30T11:00:00.410Z,101384.78
2019-03-30T11:02:37.067Z,101380.39
2019-03-30T11:05:11.652Z,101379.05
2019-03-30T11:07:47.723Z,101367.94
2019-03-30T11:10:22.128Z,101361.86
2019-03-30T11:12:57.018Z,101361.81
2019-03-30T11:15:34.172Z,101343.98
2019-03-30T11:18:07.655Z,101354.22
2019-03-30T11:20:42.547Z,101352.63
2019-03-30T11:23:17.242Z,101349.08
2019-03-30T11:25:53.178Z,101345.30
2019-03-30T11:28:27.635Z,101343.39
2019-03-30T11:31:05.492Z,101341.25
2019-03-30T11:33:42.589Z,101337.47
2019-03-30T11:36:18.780Z,101341.66
2019-03-30T11:38:53.412Z,101331.52
2019-03-30T11:41:28.199Z,101337.88
2019-03-30T11:44:02.961Z,101324.70
2019-03-30T11:46:37.643Z,101331.28
2019-03-30T11:49:12.207Z,101322.31
2019-03-30T11:51:46.812Z,101324.69
2019-03-30T11:54:21.689Z,101313.30
2019-03-30T11:56:58.280Z,101305.38
2019-03-30T11:59:33.356Z,101307.30
2019-03-30T12:02:07.760Z,101304.97
2019-03-30T12:04:42.388Z,101303.44
2019-03-30T12:07:17.336Z,101297.28
2019-03-30T12:09:52.163Z,101296.78
2019-03-30T12:12:27.308Z,101291.09
2019-03-30T12:15:01.867Z,101294.05
2019-03-30T12:17:36.518Z,101283.77
2019-03-30T12:20:11.653Z,101281.84
2019-03-30T12:22:46.958Z,101280.63
2019-03-30T12:25:34.875Z,101275.50
2019-03-30T12:27:58.589Z,101265.88
2019-03-30T12:30:34.858Z,101264.70
2019-03-30T12:33:11.396Z,101250.67
2019-03-30T12:35:46.320Z,101254.33
2019-03-30T12:38:20.880Z,101246.45
2019-03-30T12:40:55.669Z,101243.70
2019-03-30T12:43:30.401Z,101236.77
2019-03-30T12:46:06.458Z,101231.70
2019-03-30T12:48:42.923Z,101236.55
2019-03-30T12:51:17.475Z,101227.20
2019-03-30T12:53:52.019Z,101225.30
2019-03-30T12:56:26.598Z,101226.88
2019-03-30T12:59:01.172Z,101223.87
2019-03-30T13:01:37.171Z,101231.84
2019-03-30T13:04:11.705Z,101220.06
2019-03-30T13:06:46.343Z,101205.64
2019-03-30T13:09:20.925Z,101210.97
2019-03-30T13:11:57.224Z,101212.21
2019-03-30T13:14:31.810Z,101211.66
2019-03-30T13:17:06.782Z,101207.01
2019-03-30T13:19:41.394Z,101204.39
2019-03-30T13:22:15.776Z,101197.28
2019-03-30T13:24:52.652Z,101201.12
2019-03-30T13:27:27.080Z,101211.44
2019-03-30T13:30:01.653Z,101201.98
2019-03-30T13:32:36.079Z,101208.54
2019-03-30T13:35:10.590Z,101202.72
2019-03-30T13:37:45.025Z,101200.41
2019-03-30T13:40:19.523Z,101192.58
2019-03-30T13:42:53.878Z,101188.61
2019-03-30T13:45:28.300Z,101191.11
2019-03-30T13:48:03.110Z,101181.94
2019-03-30T13:50:38.056Z,101179.81
2019-03-30T13:53:12.514Z,101176.61
2019-03-30T13:55:48.806Z,101175.07
2019-03-30T13:59:01.172Z,101165.25
2019-03-30T14:01:37.181Z,101171.20
2019-03-30T14:04:11.604Z,101167.31
2019-03-30T14:06:46.246Z,101155.64
2019-03-30T14:09:22.138Z,101155.47
2019-03-30T14:11:56.665Z,101150.79
2019-03-30T14:14:31.111Z,101153.50
2019-03-30T14:17:05.906Z,101150.70
2019-03-30T14:19:42.193Z,101149.20
2019-03-30T14:22:18.189Z,101145.06
2019-03-30T14:24:52.742Z,101144.24
2019-03-30T14:27:27.249Z,101139.01
2019-03-30T14:30:01.970Z,101133.91
2019-03-30T14:32:36.609Z,101132.36
2019-03-30T14:35:12.724Z,101130.55
2019-03-30T14:37:47.369Z,101132.37
2019-03-30T14:40:21.979Z,101127.63
2019-03-30T14:42:57.084Z,101121.64
2019-03-30T14:45:31.620Z,101116.28
2019-03-30T14:48:07.735Z,101113.10
2019-03-30T14:50:42.170Z,101110.79
2019-03-30T14:53:16.986Z,101101.41
2019-03-30T14:55:51.614Z,101099.58
2019-03-30T14:58:26.056Z,101101.20
2019-03-30T15:01:03.210Z,101091.76
2019-03-30T15:03:37.453Z,101098.77
2019-03-30T15:06:11.981Z,101092.78
2019-03-30T15:08:46.636Z,101090.08
2019-03-30T15:11:22.219Z,101092.35
2019-03-30T15:13:56.719Z,101088.76
2019-03-30T15:16:31.313Z,101095.01
2019-03-30T15:19:06.399Z,101084.30
2019-03-30T15:21:42.675Z,101079.67
2019-03-30T15:24:17.425Z,101083.94
2019-03-30T15:26:59.759Z,101077.87
2019-03-30T15:29:28.468Z,101076.41
2019-03-30T15:32:03.376Z,101068.28
2019-03-30T15:34:41.372Z,101075.01
2019-03-30T15:37:16.076Z,101068.09
2019-03-30T15:39:50.653Z,101066.20
2019-03-30T15:42:27.071Z,101065.16
2019-03-30T15:45:01.748Z,101062.62
2019-03-30T15:47:36.965Z,101063.94
2019-03-30T15:50:12.959Z,101056.30
2019-03-30T15:52:49.664Z,101058.81
2019-03-30T15:55:25.541Z,101058.36
2019-03-30T15:58:00.257Z,101062.16
2019-03-30T16:00:35.099Z,101055.73
2019-03-30T16:03:09.750Z,101055.38
2019-03-30T16:05:45.807Z,101059.53
2019-03-30T16:08:20.277Z,101057.16
2019-03-30T16:10:55.334Z,101062.29
2019-03-30T16:13:31.605Z,101053.58
2019-03-30T16:16:06.734Z,101055.38
2019-03-30T16:18:43.038Z,101056.91
2019-03-30T16:21:20.080Z,101053.48
2019-03-30T16:23:55.124Z,101055.88
2019-03-30T16:26:41.406Z,101050.56
2019-03-30T16:29:08.463Z,101052.83
2019-03-30T16:31:43.026Z,101053.43
2019-03-30T16:34:19.478Z,101055.93
2019-03-30T16:36:56.132Z,101051.25
2019-03-30T16:39:34.819Z,101060.44
2019-03-30T16:42:09.684Z,101057.92
2019-03-30T16:44:44.255Z,101056.62
2019-03-30T16:47:19.042Z,101059.10
2019-03-30T16:49:55.435Z,101068.70
2019-03-30T16:52:31.668Z,101062.43
2019-03-30T16:55:08.041Z,101058.28
2019-03-30T16:57:44.092Z,101053.41
2019-03-30T17:00:21.015Z,101057.06
2019-03-30T17:02:57.396Z,101058.97
2019-03-30T17:05:31.963Z,101055.11
2019-03-30T17:08:08.124Z,101056.44
2019-03-30T17:10:42.659Z,101059.28
2019-03-30T17:13:17.317Z,101052.42
2019-03-30T17:15:51.970Z,101067.30
2019-03-30T17:18:26.481Z,101062.95
2019-03-30T17:21:01.162Z,101067.77
2019-03-30T17:23:37.484Z,101070.57
2019-03-30T17:26:12.337Z,101066.84
2019-03-30T17:28:47.064Z,101068.94
2019-03-30T17:31:21.687Z,101071.55
2019-03-30T17:33:56.058Z,101072.69
2019-03-30T17:36:30.647Z,101066.95
2019-03-30T17:39:09.178Z,101076.98
2019-03-30T17:41:45.120Z,101078.06
2019-03-30T17:44:19.582Z,101079.36
2019-03-30T17:46:54.539Z,101083.87
2019-03-30T17:49:29.233Z,101087.31
2019-03-30T17:52:03.899Z,101084.59
2019-03-30T17:54:40.014Z,101086.78
2019-03-30T17:57:17.449Z,101092.22
2019-03-30T17:59:53.257Z,101091.19
2019-03-30T18:02:28.056Z,101094.39
2019-03-30T18:05:02.597Z,101091.16
2019-03-30T18:07:37.231Z,101087.98
2019-03-30T18:10:13.630Z,101099.53
2019-03-30T18:12:49.939Z,101091.06
2019-03-30T18:15:24.542Z,101097.59
2019-03-30T18:18:00.656Z,101103.18
2019-03-30T18:20:35.381Z,101104.93
2019-03-30T18:23:10.032Z,101105.79
2019-03-30T18:25:46.290Z,101107.83
2019-03-30T18:28:26.940Z,101111.86
2019-03-30T18:30:59.199Z,101111.03
2019-03-30T18:33:34.348Z,101113.79
2019-03-30T18:36:10.401Z,101116.48
2019-03-30T18:38:49.385Z,101120.80
2019-03-30T18:41:23.991Z,101123.39
2019-03-30T18:44:02.232Z,101123.39
2019-03-30T18:46:39.561Z,101125.09
2019-03-30T18:49:14.070Z,101129.27
2019-03-30T18:51:50.422Z,101131.40
2019-03-30T18:54:27.510Z,101131.89
2019-03-30T18:57:02.713Z,101134.38
2019-03-30T18:59:37.294Z,101134.81
2019-03-30T19:02:12.080Z,101133.52
2019-03-30T19:04:48.651Z,101134.16
2019-03-30T19:07:23.248Z,101134.16
2019-03-30T19:09:59.108Z,101133.07
2019-03-30T19:12:34.932Z,101138.55
2019-03-30T19:15:10.877Z,101134.95
2019-03-30T19:17:46.192Z,101136.59
2019-03-30T19:20:22.531Z,101141.85
2019-03-30T19:22:57.941Z,101136.09
2019-03-30T19:25:32.571Z,101145.34
2019-03-30T19:28:09.134Z,101136.56
2019-03-30T19:30:44.887Z,101145.32
2019-03-30T19:34:10.556Z,101140.27
2019-03-30T19:36:46.942Z,101143.12
2019-03-30T19:39:23.508Z,101139.16
2019-03-30T19:41:58.351Z,101142.14
2019-03-30T19:44:34.044Z,101141.84
2019-03-30T19:47:09.940Z,101137.91
2019-03-30T19:49:45.107Z,101140.36
2019-03-30T19:52:20.974Z,101141.50
2019-03-30T19:54:55.508Z,101142.05
2019-03-30T19:57:30.308Z,101150.84
2019-03-30T20:00:10.221Z,101146.31
2019-03-30T20:02:44.979Z,101148.28
2019-03-30T20:05:22.767Z,101152.49
2019-03-30T20:08:11.223Z,101149.03
2019-03-30T20:10:35.340Z,101148.13
2019-03-30T20:13:10.162Z,101145.12
2019-03-30T20:15:45.155Z,101144.64
2019-03-30T20:18:21.139Z,101152.31
2019-03-30T20:20:55.858Z,101146.13
2019-03-30T20:23:30.366Z,101151.20
2019-03-30T20:26:05.126Z,101147.68
2019-03-30T20:28:45.778Z,101150.55
2019-03-30T20:31:22.351Z,101140.45
2019-03-30T20:33:57.026Z,101141.86
2019-03-30T20:36:34.995Z,101148.11
2019-03-30T20:39:10.262Z,101150.85
2019-03-30T20:41:45.367Z,101158.43
2019-03-30T20:44:20.434Z,101167.41
2019-03-30T20:46:55.026Z,101171.25
2019-03-30T20:49:29.967Z,101170.89
2019-03-30T20:52:04.469Z,101177.16
2019-03-30T20:54:39.606Z,101168.14
2019-03-30T20:57:16.294Z,101171.88
2019-03-30T20:59:52.684Z,101171.09
2019-03-30T21:02:28.253Z,101170.58
2019-03-30T21:05:04.875Z,101172.17
2019-03-30T21:07:41.745Z,101176.04
2019-03-30T21:10:16.465Z,101172.97
2019-03-30T21:12:51.350Z,101184.48
2019-03-30T21:15:26.417Z,101180.34
2019-03-30T21:18:02.309Z,101180.62
2019-03-30T21:20:37.152Z,101182.18
2019-03-30T21:23:12.159Z,101180.52
2019-03-30T21:25:47.008Z,101177.02
2019-03-30T21:28:23.109Z,101172.21
2019-03-30T21:30:59.331Z,101171.70
2019-03-30T21:33:34.298Z,101177.28
2019-03-30T21:36:09.199Z,101172.43
2019-03-30T21:38:45.284Z,101175.66
2019-03-30T21:41:21.365Z,101177.73
2019-03-30T21:43:58.304Z,101174.10
2019-03-30T21:46:34.026Z,101177.52
2019-03-30T21:49:08.624Z,101174.75
2019-03-30T21:51:43.405Z,101173.94
2019-03-30T21:54:17.940Z,101174.33
2019-03-30T21:56:54.396Z,101176.98
2019-03-30T21:59:29.977Z,101184.81
2019-03-30T22:02:04.471Z,101185.64
2019-03-30T22:04:39.144Z,101188.36
2019-03-30T22:07:13.878Z,101189.38
2019-03-30T22:09:48.684Z,101189.97
2019-03-30T22:12:38.940Z,101193.66
2019-03-30T22:15:16.582Z,101201.96
2019-03-30T22:17:50.998Z,101201.83
2019-03-30T22:20:27.762Z,101201.95
2019-03-30T22:23:04.252Z,101198.61
2019-03-30T22:25:38.756Z,101205.49
2019-03-30T22:28:13.247Z,101209.90
2019-03-30T22:30:49.208Z,101208.81
2019-03-30T22:33:24.196Z,101214.45
2019-03-30T22:35:58.972Z,101215.00
2019-03-30T22:38:33.608Z,101209.41
2019-03-30T22:41:09.701Z,101215.23
2019-03-30T22:43:44.430Z,101211.06
2019-03-30T22:46:18.908Z,101210.00
2019-03-30T22:48:53.537Z,101211.00
2019-03-30T22:51:27.946Z,101215.03
2019-03-30T22:54:03.918Z,101207.49
2019-03-30T22:56:38.400Z,101205.79
2019-03-30T22:59:12.794Z,101202.43
2019-03-30T23:01:47.333Z,101208.98
2019-03-30T23:04:22.311Z,101212.58
2019-03-30T23:06:56.861Z,101206.22
2019-03-30T23:09:31.252Z,101207.68
2019-03-30T23:12:05.787Z,101207.81
2019-03-30T23:14:40.939Z,101219.87
2019-03-30T23:17:16.071Z,101217.88
2019-03-30T23:19:50.699Z,101213.16
2019-03-30T23:22:25.324Z,101217.75
2019-03-30T23:25:01.083Z,101216.91
2019-03-30T23:27:35.762Z,101217.61
2019-03-30T23:30:11.874Z,101217.02
2019-03-30T23:32:46.645Z,101218.95
2019-03-30T23:35:21.125Z,101218.36
2019-03-30T23:37:55.759Z,101219.05
2019-03-30T23:40:30.163Z,101223.05
2019-03-30T23:43:04.543Z,101224.04
2019-03-30T23:45:39.327Z,101219.38
2019-03-30T23:48:15.254Z,101223.78
2019-03-30T23:50:49.733Z,101216.51
2019-03-30T23:53:24.276Z,101224.44
2019-03-30T23:55:59.185Z,101231.05
2019-03-30T23:58:33.778Z,101223.36
